sensor_id;sensor_type;location;lat;lon;timestamp;pressure;altitude;pressure_sealevel;temperature;humidity
55277;BME280;41136;51.478;-2.610;2023-05-19T00:02:18;101896.68;;;14.35;100.00
55277;BME280;41136;51.478;-2.610;2023-05-19T00:04:43;101893.95;;;14.17;100.00
55277;BME280;41136;51.478;-2.610;2023-05-19T00:07:09;101890.57;;;14.36;100.00
55277;BME280;41136;51.478;-2.610;2023-05-19T00:09:34;101893.29;;;13.71;100.00
55277;BME280;41136;51.478;-2.610;2023-05-19T00:11:59;101894.22;;;13.91;100.00
55277;BME280;41136;51.478;-2.610;2023-05-19T00:14:24;101894.87;;;14.27;100.00
55277;BME280;41136;51.478;-2.610;2023-05-19T00:16:49;101895.19;;;14.00;100.00
55277;BME280;41136;51.478;-2.610;2023-05-19T00:19:14;101896.00;;;14.23;100.00
55277;BME280;41136;51.478;-2.610;2023-05-19T00:21:39;101896.94;;;13.89;100.00
55277;BME280;41136;51.478;-2.610;2023-05-19T00:24:05;101899.98;;;13.58;100.00
55277;BME280;41136;51.478;-2.610;2023-05-19T00:27:50;101903.43;;;13.63;100.00
55277;BME280;41136;51.478;-2.610;2023-05-19T00:30:16;101907.42;;;13.77;100.00
55277;BME280;41136;51.478;-2.610;2023-05-19T00:32:42;101908.87;;;13.90;100.00
55277;BME280;41136;51.478;-2.610;2023-05-19T00:35:08;101905.20;;;14.17;100.00
55277;BME280;41136;51.478;-2.610;2023-05-19T00:37:33;101901.24;;;14.38;100.00
55277;BME280;41136;51.478;-2.610;2023-05-19T00:39:59;101900.76;;;14.37;100.00
55277;BME280;41136;51.478;-2.610;2023-05-19T00:42:25;101898.33;;;14.71;100.00
55277;BME280;41136;51.478;-2.610;2023-05-19T00:44:51;101898.73;;;14.41;100.00
55277;BME280;41136;51.478;-2.610;2023-05-19T00:47:16;101894.00;;;14.75;100.00
55277;BME280;41136;51.478;-2.610;2023-05-19T00:49:41;101891.55;;;14.58;100.00
55277;BME280;41136;51.478;-2.610;2023-05-19T00:52:07;101886.17;;;14.63;100.00
55277;BME280;41136;51.478;-2.610;2023-05-19T00:54:33;101887.66;;;14.26;100.00
55277;BME280;41136;51.478;-2.610;2023-05-19T00:56:58;101885.96;;;14.34;100.00
55277;BME280;41136;51.478;-2.610;2023-05-19T00:59:23;101887.81;;;14.44;100.00
55277;BME280;41136;51.478;-2.610;2023-05-19T01:01:49;101888.44;;;14.46;100.00
55277;BME280;41136;51.478;-2.610;2023-05-19T01:04:14;101887.79;;;14.25;100.00
55277;BME280;41136;51.478;-2.610;2023-05-19T01:06:39;101885.81;;;14.15;100.00
55277;BME280;41136;51.478;-2.610;2023-05-19T01:09:04;101886.61;;;14.59;100.00
55277;BME280;41136;51.478;-2.610;2023-05-19T01:11:29;101891.92;;;14.55;100.00
55277;BME280;41136;51.478;-2.610;2023-05-19T01:13:55;101892.53;;;14.78;100.00
55277;BME280;41136;51.478;-2.610;2023-05-19T01:16:25;101895.03;;;14.18;100.00
55277;BME280;41136;51.478;-2.610;2023-05-19T01:18:51;101903.95;;;13.76;100.00
55277;BME280;41136;51.478;-2.610;2023-05-19T01:23:42;101900.33;;;14.92;100.00
55277;BME280;41136;51.478;-2.610;2023-05-19T01:26:11;101902.20;;;14.55;100.00
55277;BME280;41136;51.478;-2.610;2023-05-19T01:28:45;101898.88;;;14.95;100.00
55277;BME280;41136;51.478;-2.610;2023-05-19T01:30:53;101897.57;;;14.51;100.00
55277;BME280;41136;51.478;-2.610;2023-05-19T01:33:18;101899.31;;;14.63;100.00
55277;BME280;41136;51.478;-2.610;2023-05-19T01:35:44;101899.16;;;14.70;100.00
55277;BME280;41136;51.478;-2.610;2023-05-19T01:38:10;101900.96;;;14.04;100.00
55277;BME280;41136;51.478;-2.610;2023-05-19T01:40:34;101900.52;;;14.37;100.00
55277;BME280;41136;51.478;-2.610;2023-05-19T01:43:00;101893.17;;;14.61;100.00
55277;BME280;41136;51.478;-2.610;2023-05-19T01:45:27;101889.92;;;15.04;100.00
55277;BME280;41136;51.478;-2.610;2023-05-19T01:47:53;101884.92;;;14.88;100.00
55277;BME280;41136;51.478;-2.610;2023-05-19T01:50:16;101883.85;;;15.22;100.00
55277;BME280;41136;51.478;-2.610;2023-05-19T01:52:41;101883.18;;;15.01;99.16
55277;BME280;41136;51.478;-2.610;2023-05-19T01:55:08;101882.10;;;15.75;97.14
55277;BME280;41136;51.478;-2.610;2023-05-19T01:57:38;101880.32;;;15.37;96.59
55277;BME280;41136;51.478;-2.610;2023-05-19T02:00:05;101872.35;;;15.83;95.31
55277;BME280;41136;51.478;-2.610;2023-05-19T02:02:28;101866.95;;;15.46;94.70
55277;BME280;41136;51.478;-2.610;2023-05-19T02:04:54;101873.91;;;15.01;96.02
55277;BME280;41136;51.478;-2.610;2023-05-19T02:07:19;101871.75;;;15.19;95.90
55277;BME280;41136;51.478;-2.610;2023-05-19T02:09:52;101869.52;;;15.23;96.74
55277;BME280;41136;51.478;-2.610;2023-05-19T02:12:11;101870.18;;;15.05;97.17
55277;BME280;41136;51.478;-2.610;2023-05-19T02:14:38;101870.89;;;15.43;96.78
55277;BME280;41136;51.478;-2.610;2023-05-19T02:16:57;101865.94;;;15.14;96.17
55277;BME280;41136;51.478;-2.610;2023-05-19T02:19:23;101863.08;;;15.52;94.29
55277;BME280;41136;51.478;-2.610;2023-05-19T02:21:46;101859.14;;;16.04;94.21
55277;BME280;41136;51.478;-2.610;2023-05-19T02:24:11;101865.82;;;15.38;94.43
55277;BME280;41136;51.478;-2.610;2023-05-19T02:26:37;101872.07;;;15.24;95.72
55277;BME280;41136;51.478;-2.610;2023-05-19T02:29:02;101869.35;;;15.22;95.60
55277;BME280;41136;51.478;-2.610;2023-05-19T02:31:27;101865.38;;;15.28;95.18
55277;BME280;41136;51.478;-2.610;2023-05-19T02:33:53;101869.48;;;15.02;95.15
55277;BME280;41136;51.478;-2.610;2023-05-19T02:36:18;101873.97;;;15.24;94.59
55277;BME280;41136;51.478;-2.610;2023-05-19T02:38:44;101872.73;;;15.22;95.29
55277;BME280;41136;51.478;-2.610;2023-05-19T02:41:09;101873.54;;;14.54;95.99
55277;BME280;41136;51.478;-2.610;2023-05-19T02:43:34;101876.21;;;14.20;96.98
55277;BME280;41136;51.478;-2.610;2023-05-19T02:45:59;101878.92;;;14.10;98.83
55277;BME280;41136;51.478;-2.610;2023-05-19T02:48:25;101877.48;;;14.06;98.79
55277;BME280;41136;51.478;-2.610;2023-05-19T02:50:51;101868.86;;;14.33;98.25
55277;BME280;41136;51.478;-2.610;2023-05-19T02:53:17;101867.10;;;14.66;98.42
55277;BME280;41136;51.478;-2.610;2023-05-19T02:55:42;101869.12;;;14.56;98.16
55277;BME280;41136;51.478;-2.610;2023-05-19T02:58:07;101868.01;;;14.20;99.92
55277;BME280;41136;51.478;-2.610;2023-05-19T03:00:32;101872.17;;;14.04;99.82
55277;BME280;41136;51.478;-2.610;2023-05-19T03:02:58;101873.48;;;14.53;98.70
55277;BME280;41136;51.478;-2.610;2023-05-19T03:05:23;101872.70;;;14.40;99.36
55277;BME280;41136;51.478;-2.610;2023-05-19T03:07:48;101879.59;;;13.66;100.00
55277;BME280;41136;51.478;-2.610;2023-05-19T03:10:13;101881.39;;;13.92;100.00
55277;BME280;41136;51.478;-2.610;2023-05-19T03:12:38;101879.38;;;13.53;100.00
55277;BME280;41136;51.478;-2.610;2023-05-19T03:15:05;101873.04;;;13.60;100.00
55277;BME280;41136;51.478;-2.610;2023-05-19T03:17:29;101865.28;;;13.72;100.00
55277;BME280;41136;51.478;-2.610;2023-05-19T03:19:55;101861.26;;;13.91;100.00
55277;BME280;41136;51.478;-2.610;2023-05-19T03:22:20;101863.42;;;14.28;98.73
55277;BME280;41136;51.478;-2.610;2023-05-19T03:24:46;101867.12;;;14.49;99.51
55277;BME280;41136;51.478;-2.610;2023-05-19T03:27:11;101867.37;;;13.69;99.97
55277;BME280;41136;51.478;-2.610;2023-05-19T03:29:36;101869.65;;;13.53;100.00
55277;BME280;41136;51.478;-2.610;2023-05-19T03:32:02;101867.32;;;13.99;100.00
55277;BME280;41136;51.478;-2.610;2023-05-19T03:34:28;101865.32;;;13.96;100.00
55277;BME280;41136;51.478;-2.610;2023-05-19T03:36:53;101858.75;;;13.94;100.00
55277;BME280;41136;51.478;-2.610;2023-05-19T03:39:18;101858.77;;;13.86;100.00
55277;BME280;41136;51.478;-2.610;2023-05-19T03:41:44;101863.99;;;13.77;100.00
55277;BME280;41136;51.478;-2.610;2023-05-19T03:44:10;101873.72;;;13.30;100.00
55277;BME280;41136;51.478;-2.610;2023-05-19T03:46:35;101874.10;;;13.76;100.00
55277;BME280;41136;51.478;-2.610;2023-05-19T03:49:00;101866.63;;;13.44;100.00
55277;BME280;41136;51.478;-2.610;2023-05-19T03:51:26;101863.74;;;13.72;100.00
55277;BME280;41136;51.478;-2.610;2023-05-19T03:53:51;101862.21;;;13.76;100.00
55277;BME280;41136;51.478;-2.610;2023-05-19T03:56:16;101866.34;;;13.31;100.00
55277;BME280;41136;51.478;-2.610;2023-05-19T03:58:42;101866.20;;;13.50;100.00
55277;BME280;41136;51.478;-2.610;2023-05-19T04:01:07;101870.55;;;13.94;100.00
55277;BME280;41136;51.478;-2.610;2023-05-19T04:03:32;101870.69;;;13.67;100.00
55277;BME280;41136;51.478;-2.610;2023-05-19T04:05:58;101868.24;;;14.07;100.00
55277;BME280;41136;51.478;-2.610;2023-05-19T04:12:20;101879.46;;;13.17;99.43
55277;BME280;41136;51.478;-2.610;2023-05-19T04:14:45;101887.39;;;13.26;100.00
55277;BME280;41136;51.478;-2.610;2023-05-19T04:17:10;101888.91;;;13.03;100.00
55277;BME280;41136;51.478;-2.610;2023-05-19T04:19:36;101891.12;;;13.10;100.00
55277;BME280;41136;51.478;-2.610;2023-05-19T04:22:01;101898.19;;;13.51;100.00
55277;BME280;41136;51.478;-2.610;2023-05-19T04:24:26;101907.48;;;13.11;100.00
55277;BME280;41136;51.478;-2.610;2023-05-19T04:26:52;101906.87;;;12.72;100.00
55277;BME280;41136;51.478;-2.610;2023-05-19T04:29:18;101908.33;;;13.48;100.00
55277;BME280;41136;51.478;-2.610;2023-05-19T04:31:43;101915.66;;;12.66;100.00
55277;BME280;41136;51.478;-2.610;2023-05-19T04:34:07;101924.10;;;12.03;100.00
55277;BME280;41136;51.478;-2.610;2023-05-19T04:36:33;101926.93;;;12.65;100.00
55277;BME280;41136;51.478;-2.610;2023-05-19T04:38:58;101933.79;;;12.21;100.00
55277;BME280;41136;51.478;-2.610;2023-05-19T04:41:24;101928.73;;;11.78;100.00
55277;BME280;41136;51.478;-2.610;2023-05-19T04:43:49;101925.48;;;11.51;100.00
55277;BME280;41136;51.478;-2.610;2023-05-19T04:46:14;101925.10;;;11.31;100.00
55277;BME280;41136;51.478;-2.610;2023-05-19T04:48:39;101925.01;;;10.90;100.00
55277;BME280;41136;51.478;-2.610;2023-05-19T04:51:05;101920.76;;;11.73;100.00
55277;BME280;41136;51.478;-2.610;2023-05-19T04:53:30;101919.38;;;12.16;100.00
55277;BME280;41136;51.478;-2.610;2023-05-19T04:55:56;101914.98;;;11.63;100.00
55277;BME280;41136;51.478;-2.610;2023-05-19T04:58:20;101911.06;;;12.24;100.00
55277;BME280;41136;51.478;-2.610;2023-05-19T05:00:46;101902.77;;;13.01;100.00
55277;BME280;41136;51.478;-2.610;2023-05-19T05:03:11;101897.46;;;12.78;100.00
55277;BME280;41136;51.478;-2.610;2023-05-19T05:05:37;101896.88;;;12.38;100.00
55277;BME280;41136;51.478;-2.610;2023-05-19T05:08:02;101894.34;;;13.54;100.00
55277;BME280;41136;51.478;-2.610;2023-05-19T05:10:27;101893.49;;;13.22;100.00
55277;BME280;41136;51.478;-2.610;2023-05-19T05:12:53;101886.87;;;13.41;100.00
55277;BME280;41136;51.478;-2.610;2023-05-19T05:15:21;101884.53;;;13.60;100.00
55277;BME280;41136;51.478;-2.610;2023-05-19T05:17:44;101884.53;;;13.69;100.00
55277;BME280;41136;51.478;-2.610;2023-05-19T05:20:10;101881.04;;;14.06;100.00
55277;BME280;41136;51.478;-2.610;2023-05-19T05:22:34;101872.12;;;14.24;100.00
55277;BME280;41136;51.478;-2.610;2023-05-19T05:25:00;101861.26;;;13.77;100.00
55277;BME280;41136;51.478;-2.610;2023-05-19T05:27:24;101852.99;;;14.82;98.52
55277;BME280;41136;51.478;-2.610;2023-05-19T05:29:49;101854.70;;;14.25;97.55
55277;BME280;41136;51.478;-2.610;2023-05-19T05:32:14;101847.32;;;13.75;99.16
55277;BME280;41136;51.478;-2.610;2023-05-19T05:34:39;101850.01;;;13.80;99.18
55277;BME280;41136;51.478;-2.610;2023-05-19T05:37:05;101851.73;;;13.79;99.70
55277;BME280;41136;51.478;-2.610;2023-05-19T05:39:30;101855.10;;;13.59;100.00
55277;BME280;41136;51.478;-2.610;2023-05-19T05:41:55;101859.26;;;12.98;100.00
55277;BME280;41136;51.478;-2.610;2023-05-19T05:44:21;101859.21;;;12.42;100.00
55277;BME280;41136;51.478;-2.610;2023-05-19T05:46:47;101859.95;;;12.29;100.00
55277;BME280;41136;51.478;-2.610;2023-05-19T05:49:12;101865.03;;;12.56;100.00
55277;BME280;41136;51.478;-2.610;2023-05-19T05:51:37;101869.85;;;12.36;100.00
55277;BME280;41136;51.478;-2.610;2023-05-19T05:54:05;101874.18;;;12.02;100.00
55277;BME280;41136;51.478;-2.610;2023-05-19T05:56:28;101879.98;;;11.55;100.00
55277;BME280;41136;51.478;-2.610;2023-05-19T05:58:52;101881.00;;;11.13;100.00
55277;BME280;41136;51.478;-2.610;2023-05-19T06:01:18;101882.12;;;11.30;100.00
55277;BME280;41136;51.478;-2.610;2023-05-19T06:03:43;101882.85;;;11.58;100.00
55277;BME280;41136;51.478;-2.610;2023-05-19T06:06:09;101889.71;;;10.89;100.00
55277;BME280;41136;51.478;-2.610;2023-05-19T06:08:34;101896.32;;;10.38;100.00
55277;BME280;41136;51.478;-2.610;2023-05-19T06:10:59;101900.54;;;10.40;100.00
55277;BME280;41136;51.478;-2.610;2023-05-19T06:13:24;101903.81;;;11.27;100.00
55277;BME280;41136;51.478;-2.610;2023-05-19T06:15:50;101904.67;;;11.42;100.00
55277;BME280;41136;51.478;-2.610;2023-05-19T06:18:15;101908.39;;;10.93;100.00
55277;BME280;41136;51.478;-2.610;2023-05-19T06:20:40;101908.71;;;11.49;100.00
55277;BME280;41136;51.478;-2.610;2023-05-19T06:23:05;101904.89;;;12.00;100.00
55277;BME280;41136;51.478;-2.610;2023-05-19T06:25:31;101898.19;;;11.83;100.00
55277;BME280;41136;51.478;-2.610;2023-05-19T06:27:56;101886.01;;;11.51;100.00
55277;BME280;41136;51.478;-2.610;2023-05-19T06:30:21;101884.71;;;12.25;100.00
55277;BME280;41136;51.478;-2.610;2023-05-19T06:32:46;101885.78;;;12.51;100.00
55277;BME280;41136;51.478;-2.610;2023-05-19T06:35:12;101887.48;;;12.56;100.00
55277;BME280;41136;51.478;-2.610;2023-05-19T06:37:37;101884.92;;;12.54;100.00
55277;BME280;41136;51.478;-2.610;2023-05-19T06:40:03;101879.11;;;12.64;100.00
55277;BME280;41136;51.478;-2.610;2023-05-19T06:42:28;101879.38;;;12.38;100.00
55277;BME280;41136;51.478;-2.610;2023-05-19T06:44:54;101892.12;;;13.04;100.00
55277;BME280;41136;51.478;-2.610;2023-05-19T06:47:19;101896.04;;;13.44;100.00
55277;BME280;41136;51.478;-2.610;2023-05-19T06:49:44;101896.49;;;11.91;100.00
55277;BME280;41136;51.478;-2.610;2023-05-19T06:52:10;101897.94;;;12.16;100.00
55277;BME280;41136;51.478;-2.610;2023-05-19T06:54:34;101902.61;;;12.50;100.00
55277;BME280;41136;51.478;-2.610;2023-05-19T06:57:00;101900.39;;;13.62;100.00
55277;BME280;41136;51.478;-2.610;2023-05-19T06:59:25;101897.17;;;12.36;100.00
55277;BME280;41136;51.478;-2.610;2023-05-19T07:01:50;101895.83;;;12.72;100.00
55277;BME280;41136;51.478;-2.610;2023-05-19T07:04:15;101898.91;;;12.59;100.00
55277;BME280;41136;51.478;-2.610;2023-05-19T07:06:40;101898.90;;;12.68;100.00
55277;BME280;41136;51.478;-2.610;2023-05-19T07:09:06;101906.52;;;13.66;100.00
55277;BME280;41136;51.478;-2.610;2023-05-19T07:11:31;101909.34;;;13.06;100.00
55277;BME280;41136;51.478;-2.610;2023-05-19T07:13:56;101906.75;;;13.74;100.00
55277;BME280;41136;51.478;-2.610;2023-05-19T07:16:30;101908.10;;;13.86;100.00
55277;BME280;41136;51.478;-2.610;2023-05-19T07:18:47;101915.06;;;13.20;100.00
55277;BME280;41136;51.478;-2.610;2023-05-19T07:21:12;101917.63;;;13.31;100.00
55277;BME280;41136;51.478;-2.610;2023-05-19T07:23:38;101915.11;;;13.33;100.00
55277;BME280;41136;51.478;-2.610;2023-05-19T07:26:03;101909.80;;;14.19;100.00
55277;BME280;41136;51.478;-2.610;2023-05-19T07:28:28;101910.72;;;14.03;99.76
55277;BME280;41136;51.478;-2.610;2023-05-19T07:30:53;101917.81;;;14.41;97.37
55277;BME280;41136;51.478;-2.610;2023-05-19T07:33:19;101918.80;;;13.75;99.72
55277;BME280;41136;51.478;-2.610;2023-05-19T07:35:45;101914.50;;;13.93;100.00
55277;BME280;41136;51.478;-2.610;2023-05-19T07:38:11;101914.45;;;14.29;99.60
55277;BME280;41136;51.478;-2.610;2023-05-19T07:40:36;101915.96;;;14.74;97.41
55277;BME280;41136;51.478;-2.610;2023-05-19T07:43:02;101923.56;;;14.24;97.24
55277;BME280;41136;51.478;-2.610;2023-05-19T07:45:27;101927.25;;;14.80;95.11
55277;BME280;41136;51.478;-2.610;2023-05-19T07:47:53;101924.58;;;15.09;93.71
55277;BME280;41136;51.478;-2.610;2023-05-19T07:50:18;101926.36;;;16.05;92.60
55277;BME280;41136;51.478;-2.610;2023-05-19T07:52:43;101931.62;;;15.77;89.24
55277;BME280;41136;51.478;-2.610;2023-05-19T07:55:09;101931.11;;;16.41;88.83
55277;BME280;41136;51.478;-2.610;2023-05-19T07:57:34;101933.46;;;16.50;86.86
55277;BME280;41136;51.478;-2.610;2023-05-19T08:00:00;101931.01;;;16.22;86.31
55277;BME280;41136;51.478;-2.610;2023-05-19T08:02:26;101929.42;;;16.19;85.34
55277;BME280;41136;51.478;-2.610;2023-05-19T08:04:51;101923.36;;;16.19;87.19
55277;BME280;41136;51.478;-2.610;2023-05-19T08:07:17;101922.58;;;16.82;87.32
55277;BME280;41136;51.478;-2.610;2023-05-19T08:09:42;101927.88;;;17.22;84.71
55277;BME280;41136;51.478;-2.610;2023-05-19T08:12:07;101929.86;;;15.49;84.88
55277;BME280;41136;51.478;-2.610;2023-05-19T08:14:33;101933.23;;;16.34;84.44
55277;BME280;41136;51.478;-2.610;2023-05-19T08:16:59;101929.48;;;16.17;83.84
55277;BME280;41136;51.478;-2.610;2023-05-19T08:19:24;101932.17;;;15.77;85.81
55277;BME280;41136;51.478;-2.610;2023-05-19T08:21:49;101929.77;;;15.74;85.31
55277;BME280;41136;51.478;-2.610;2023-05-19T08:24:14;101925.76;;;15.75;85.57
55277;BME280;41136;51.478;-2.610;2023-05-19T08:26:40;101925.80;;;15.71;85.13
55277;BME280;41136;51.478;-2.610;2023-05-19T08:29:05;101925.83;;;15.84;85.19
55277;BME280;41136;51.478;-2.610;2023-05-19T08:31:30;101929.98;;;15.10;87.00
55277;BME280;41136;51.478;-2.610;2023-05-19T08:33:56;101932.18;;;15.27;85.82
55277;BME280;41136;51.478;-2.610;2023-05-19T08:36:21;101928.43;;;15.67;85.46
55277;BME280;41136;51.478;-2.610;2023-05-19T08:38:46;101925.28;;;15.35;86.23
55277;BME280;41136;51.478;-2.610;2023-05-19T08:41:12;101923.15;;;14.75;87.66
55277;BME280;41136;51.478;-2.610;2023-05-19T08:43:37;101913.15;;;15.25;87.60
55277;BME280;41136;51.478;-2.610;2023-05-19T08:46:03;101909.88;;;14.74;88.88
55277;BME280;41136;51.478;-2.610;2023-05-19T08:48:28;101904.60;;;14.84;89.05
55277;BME280;41136;51.478;-2.610;2023-05-19T08:50:58;101909.68;;;14.90;88.60
55277;BME280;41136;51.478;-2.610;2023-05-19T08:53:19;101910.89;;;14.75;88.65
55277;BME280;41136;51.478;-2.610;2023-05-19T08:55:49;101906.95;;;15.59;86.61
55277;BME280;41136;51.478;-2.610;2023-05-19T08:58:10;101908.96;;;15.12;86.49
55277;BME280;41136;51.478;-2.610;2023-05-19T09:00:35;101908.15;;;15.32;86.80
55277;BME280;41136;51.478;-2.610;2023-05-19T09:03:01;101904.78;;;15.96;87.75
55277;BME280;41136;51.478;-2.610;2023-05-19T09:05:26;101898.92;;;15.80;87.74
55277;BME280;41136;51.478;-2.610;2023-05-19T09:07:51;101901.37;;;15.80;85.46
55277;BME280;41136;51.478;-2.610;2023-05-19T09:10:17;101899.42;;;15.46;86.69
55277;BME280;41136;51.478;-2.610;2023-05-19T09:12:43;101895.22;;;16.62;84.37
55277;BME280;41136;51.478;-2.610;2023-05-19T09:15:08;101895.64;;;15.52;86.05
55277;BME280;41136;51.478;-2.610;2023-05-19T09:17:32;101891.20;;;16.21;85.35
55277;BME280;41136;51.478;-2.610;2023-05-19T09:20:00;101891.40;;;16.94;83.52
55277;BME280;41136;51.478;-2.610;2023-05-19T09:22:23;101887.45;;;16.54;84.21
55277;BME280;41136;51.478;-2.610;2023-05-19T09:24:48;101890.50;;;15.80;84.40
55277;BME280;41136;51.478;-2.610;2023-05-19T09:27:14;101888.12;;;16.77;85.02
55277;BME280;41136;51.478;-2.610;2023-05-19T09:29:38;101888.13;;;16.49;83.70
55277;BME280;41136;51.478;-2.610;2023-05-19T09:32:04;101884.98;;;16.94;82.33
55277;BME280;41136;51.478;-2.610;2023-05-19T09:34:29;101887.80;;;16.01;85.51
55277;BME280;41136;51.478;-2.610;2023-05-19T09:36:54;101888.95;;;16.51;85.44
55277;BME280;41136;51.478;-2.610;2023-05-19T09:39:22;101886.60;;;16.04;84.51
55277;BME280;41136;51.478;-2.610;2023-05-19T09:41:45;101883.90;;;16.31;84.25
55277;BME280;41136;51.478;-2.610;2023-05-19T09:44:20;101882.15;;;15.69;87.73
55277;BME280;41136;51.478;-2.610;2023-05-19T09:46:35;101882.17;;;15.30;90.36
55277;BME280;41136;51.478;-2.610;2023-05-19T09:49:07;101878.60;;;16.28;88.27
55277;BME280;41136;51.478;-2.610;2023-05-19T09:51:26;101882.15;;;16.22;86.23
55277;BME280;41136;51.478;-2.610;2023-05-19T09:53:52;101880.73;;;16.13;86.63
55277;BME280;41136;51.478;-2.610;2023-05-19T09:56:17;101883.09;;;15.97;85.92
55277;BME280;41136;51.478;-2.610;2023-05-19T09:58:42;101873.23;;;16.35;85.53
55277;BME280;41136;51.478;-2.610;2023-05-19T10:01:08;101878.01;;;17.00;84.75
55277;BME280;41136;51.478;-2.610;2023-05-19T10:03:33;101881.56;;;16.72;83.81
55277;BME280;41136;51.478;-2.610;2023-05-19T10:06:00;101876.85;;;16.72;84.96
55277;BME280;41136;51.478;-2.610;2023-05-19T10:08:25;101877.31;;;15.58;88.03
55277;BME280;41136;51.478;-2.610;2023-05-19T10:10:49;101866.71;;;15.94;89.42
55277;BME280;41136;51.478;-2.610;2023-05-19T10:13:15;101866.67;;;16.33;86.32
55277;BME280;41136;51.478;-2.610;2023-05-19T10:15:40;101868.05;;;16.42;84.44
55277;BME280;41136;51.478;-2.610;2023-05-19T10:18:06;101864.42;;;16.88;82.97
55277;BME280;41136;51.478;-2.610;2023-05-19T10:20:31;101862.99;;;16.54;82.85
55277;BME280;41136;51.478;-2.610;2023-05-19T10:22:55;101859.99;;;17.20;82.03
55277;BME280;41136;51.478;-2.610;2023-05-19T10:25:20;101864.16;;;17.94;80.60
55277;BME280;41136;51.478;-2.610;2023-05-19T10:27:51;101861.53;;;16.98;83.73
55277;BME280;41136;51.478;-2.610;2023-05-19T10:30:15;101852.25;;;18.04;81.06
55277;BME280;41136;51.478;-2.610;2023-05-19T10:32:39;101843.71;;;19.09;77.56
55277;BME280;41136;51.478;-2.610;2023-05-19T10:35:21;101847.81;;;17.87;79.48
55277;BME280;41136;51.478;-2.610;2023-05-19T10:37:36;101842.82;;;17.71;80.83
55277;BME280;41136;51.478;-2.610;2023-05-19T10:39:54;101841.54;;;17.01;80.87
55277;BME280;41136;51.478;-2.610;2023-05-19T10:42:28;101841.53;;;17.19;79.30
55277;BME280;41136;51.478;-2.610;2023-05-19T10:44:53;101834.77;;;17.69;78.14
55277;BME280;41136;51.478;-2.610;2023-05-19T10:47:11;101820.38;;;18.20;77.28
55277;BME280;41136;51.478;-2.610;2023-05-19T10:49:37;101825.74;;;18.62;75.50
55277;BME280;41136;51.478;-2.610;2023-05-19T10:52:02;101826.00;;;18.23;74.71
55277;BME280;41136;51.478;-2.610;2023-05-19T10:56:56;101824.61;;;18.06;75.31
55277;BME280;41136;51.478;-2.610;2023-05-19T11:01:43;101820.30;;;18.18;74.33
55277;BME280;41136;51.478;-2.610;2023-05-19T11:04:09;101821.20;;;18.10;74.70
55277;BME280;41136;51.478;-2.610;2023-05-19T11:06:35;101822.98;;;17.68;74.80
55277;BME280;41136;51.478;-2.610;2023-05-19T11:09:02;101823.00;;;17.56;74.42
55277;BME280;41136;51.478;-2.610;2023-05-19T11:11:26;101817.70;;;18.28;74.36
55277;BME280;41136;51.478;-2.610;2023-05-19T11:13:52;101816.76;;;18.48;73.83
55277;BME280;41136;51.478;-2.610;2023-05-19T11:16:18;101821.66;;;17.75;72.12
55277;BME280;41136;51.478;-2.610;2023-05-19T11:18:42;101821.58;;;17.94;73.37
55277;BME280;41136;51.478;-2.610;2023-05-19T11:21:07;101819.65;;;18.20;73.23
55277;BME280;41136;51.478;-2.610;2023-05-19T11:23:37;101811.56;;;18.08;73.17
55277;BME280;41136;51.478;-2.610;2023-05-19T11:26:01;101820.31;;;17.27;75.64
55277;BME280;41136;51.478;-2.610;2023-05-19T11:28:23;101826.29;;;17.38;76.41
55277;BME280;41136;51.478;-2.610;2023-05-19T11:30:49;101815.75;;;18.34;73.07
55277;BME280;41136;51.478;-2.610;2023-05-19T11:33:14;101817.35;;;19.01;71.89
55277;BME280;41136;51.478;-2.610;2023-05-19T11:35:41;101808.18;;;18.32;72.56
55277;BME280;41136;51.478;-2.610;2023-05-19T11:38:06;101810.45;;;17.82;74.82
55277;BME280;41136;51.478;-2.610;2023-05-19T11:40:31;101804.60;;;18.45;75.76
55277;BME280;41136;51.478;-2.610;2023-05-19T11:42:57;101803.67;;;19.01;74.45
55277;BME280;41136;51.478;-2.610;2023-05-19T11:45:24;101812.87;;;18.49;72.99
55277;BME280;41136;51.478;-2.610;2023-05-19T11:47:47;101809.39;;;19.27;71.80
55277;BME280;41136;51.478;-2.610;2023-05-19T11:50:13;101805.28;;;18.99;70.63
55277;BME280;41136;51.478;-2.610;2023-05-19T11:52:43;101802.30;;;18.15;74.14
55277;BME280;41136;51.478;-2.610;2023-05-19T11:55:05;101802.17;;;18.42;74.54
55277;BME280;41136;51.478;-2.610;2023-05-19T11:57:29;101804.05;;;19.16;73.44
55277;BME280;41136;51.478;-2.610;2023-05-19T11:59:55;101804.71;;;18.91;71.30
55277;BME280;41136;51.478;-2.610;2023-05-19T12:02:22;101806.75;;;18.96;69.96
55277;BME280;41136;51.478;-2.610;2023-05-19T12:04:46;101807.27;;;18.83;69.82
55277;BME280;41136;51.478;-2.610;2023-05-19T12:07:11;101808.54;;;18.04;73.48
55277;BME280;41136;51.478;-2.610;2023-05-19T12:09:36;101802.82;;;18.44;75.91
55277;BME280;41136;51.478;-2.610;2023-05-19T12:12:02;101802.69;;;18.87;72.94
55277;BME280;41136;51.478;-2.610;2023-05-19T12:14:28;101804.55;;;18.75;72.04
55277;BME280;41136;51.478;-2.610;2023-05-19T12:16:53;101806.61;;;18.60;71.74
55277;BME280;41136;51.478;-2.610;2023-05-19T12:19:18;101805.75;;;19.14;70.74
55277;BME280;41136;51.478;-2.610;2023-05-19T12:21:44;101798.98;;;19.51;68.42
55277;BME280;41136;51.478;-2.610;2023-05-19T12:24:10;101809.54;;;18.99;68.34
55277;BME280;41136;51.478;-2.610;2023-05-19T12:26:34;101803.75;;;17.88;68.46
55277;BME280;41136;51.478;-2.610;2023-05-19T12:29:00;101806.63;;;17.77;68.91
55277;BME280;41136;51.478;-2.610;2023-05-19T12:31:26;101805.80;;;17.82;71.13
55277;BME280;41136;51.478;-2.610;2023-05-19T12:33:51;101805.21;;;17.40;73.21
55277;BME280;41136;51.478;-2.610;2023-05-19T12:36:17;101801.75;;;17.25;76.21
55277;BME280;41136;51.478;-2.610;2023-05-19T12:38:43;101798.09;;;17.23;78.01